sensor_id;sensor_type;location;lat;lon;timestamp;temperature;humidity
32524;DHT22;18965;52.242;20.886;2022-12-20T00:02:49;2.10;75.10
32524;DHT22;18965;52.242;20.886;2022-12-20T00:06:16;2.20;75.10
32524;DHT22;18965;52.242;20.886;2022-12-20T00:09:46;2.20;75.20
32524;DHT22;18965;52.242;20.886;2022-12-20T00:13:14;2.20;75.40
32524;DHT22;18965;52.242;20.886;2022-12-20T00:16:30;2.30;75.60
32524;DHT22;18965;52.242;20.886;2022-12-20T00:19:57;2.30;75.40
32524;DHT22;18965;52.242;20.886;2022-12-20T00:23:03;2.30;75.30
32524;DHT22;18965;52.242;20.886;2022-12-20T00:26:33;2.40;75.50
32524;DHT22;18965;52.242;20.886;2022-12-20T00:30:07;2.50;75.60
32524;DHT22;18965;52.242;20.886;2022-12-20T00:44:37;2.60;75.90
32524;DHT22;18965;52.242;20.886;2022-12-20T00:51:51;2.70;76.10
32524;DHT22;18965;52.242;20.886;2022-12-20T00:55:40;2.80;76.20
32524;DHT22;18965;52.242;20.886;2022-12-20T03:42:19;4.00;78.40
32524;DHT22;18965;52.242;20.886;2022-12-20T03:45:10;4.00;78.50
32524;DHT22;18965;52.242;20.886;2022-12-20T04:02:13;4.00;78.60
32524;DHT22;18965;52.242;20.886;2022-12-20T06:23:41;4.20;79.30
32524;DHT22;18965;52.242;20.886;2022-12-20T06:26:07;4.20;79.30
32524;DHT22;18965;52.242;20.886;2022-12-20T06:28:35;4.20;79.30
32524;DHT22;18965;52.242;20.886;2022-12-20T06:31:08;4.20;79.30
32524;DHT22;18965;52.242;20.886;2022-12-20T06:33:35;4.20;79.30
32524;DHT22;18965;52.242;20.886;2022-12-20T06:36:00;4.10;79.30
32524;DHT22;18965;52.242;20.886;2022-12-20T06:38:26;4.10;79.20
32524;DHT22;18965;52.242;20.886;2022-12-20T06:40:52;4.20;79.30
32524;DHT22;18965;52.242;20.886;2022-12-20T06:43:18;4.20;79.30
32524;DHT22;18965;52.242;20.886;2022-12-20T06:45:44;4.20;79.30
32524;DHT22;18965;52.242;20.886;2022-12-20T06:48:10;4.20;79.40
32524;DHT22;18965;52.242;20.886;2022-12-20T06:50:38;4.20;79.50
32524;DHT22;18965;52.242;20.886;2022-12-20T06:53:04;4.20;79.40
32524;DHT22;18965;52.242;20.886;2022-12-20T06:55:30;4.20;79.40
32524;DHT22;18965;52.242;20.886;2022-12-20T06:57:56;4.20;79.40
32524;DHT22;18965;52.242;20.886;2022-12-20T07:00:22;4.30;79.50
32524;DHT22;18965;52.242;20.886;2022-12-20T07:02:48;4.30;79.50
32524;DHT22;18965;52.242;20.886;2022-12-20T07:05:14;4.30;79.50
32524;DHT22;18965;52.242;20.886;2022-12-20T07:07:40;4.30;79.40
32524;DHT22;18965;52.242;20.886;2022-12-20T07:10:06;4.40;79.50
32524;DHT22;18965;52.242;20.886;2022-12-20T07:12:32;4.30;79.40
32524;DHT22;18965;52.242;20.886;2022-12-20T07:14:58;4.40;79.40
32524;DHT22;18965;52.242;20.886;2022-12-20T07:17:24;4.40;79.40
32524;DHT22;18965;52.242;20.886;2022-12-20T07:19:50;4.40;79.30
32524;DHT22;18965;52.242;20.886;2022-12-20T07:22:15;4.40;79.20
32524;DHT22;18965;52.242;20.886;2022-12-20T07:24:41;4.40;79.10
32524;DHT22;18965;52.242;20.886;2022-12-20T07:27:08;4.50;79.10
32524;DHT22;18965;52.242;20.886;2022-12-20T07:29:34;4.50;79.00
32524;DHT22;18965;52.242;20.886;2022-12-20T07:32:01;4.50;79.00
32524;DHT22;18965;52.242;20.886;2022-12-20T07:34:27;4.50;79.70
32524;DHT22;18965;52.242;20.886;2022-12-20T07:36:53;4.50;78.90
32524;DHT22;18965;52.242;20.886;2022-12-20T07:39:18;4.60;78.90
32524;DHT22;18965;52.242;20.886;2022-12-20T07:41:44;4.60;78.80
32524;DHT22;18965;52.242;20.886;2022-12-20T07:44:10;4.60;78.70
32524;DHT22;18965;52.242;20.886;2022-12-20T07:46:36;4.70;78.70
32524;DHT22;18965;52.242;20.886;2022-12-20T07:49:02;4.70;78.50
32524;DHT22;18965;52.242;20.886;2022-12-20T07:51:35;4.70;78.50
32524;DHT22;18965;52.242;20.886;2022-12-20T07:54:05;4.80;78.40
32524;DHT22;18965;52.242;20.886;2022-12-20T07:56:35;4.80;78.20
32524;DHT22;18965;52.242;20.886;2022-12-20T07:59:04;4.80;78.10
32524;DHT22;18965;52.242;20.886;2022-12-20T08:01:31;4.80;78.00
32524;DHT22;18965;52.242;20.886;2022-12-20T08:04:03;4.80;78.00
32524;DHT22;18965;52.242;20.886;2022-12-20T08:06:31;4.90;78.10
32524;DHT22;18965;52.242;20.886;2022-12-20T08:08:59;4.90;78.10
32524;DHT22;18965;52.242;20.886;2022-12-20T08:11:30;4.90;78.10
32524;DHT22;18965;52.242;20.886;2022-12-20T08:14:00;4.90;78.00
32524;DHT22;18965;52.242;20.886;2022-12-20T08:16:26;4.90;78.00
32524;DHT22;18965;52.242;20.886;2022-12-20T08:19:00;4.90;77.90
32524;DHT22;18965;52.242;20.886;2022-12-20T08:21:26;4.90;77.90
32524;DHT22;18965;52.242;20.886;2022-12-20T08:23:53;5.00;77.90
32524;DHT22;18965;52.242;20.886;2022-12-20T08:26:22;5.00;77.90
32524;DHT22;18965;52.242;20.886;2022-12-20T08:28:50;5.00;78.00
32524;DHT22;18965;52.242;20.886;2022-12-20T08:31:19;5.10;78.00
32524;DHT22;18965;52.242;20.886;2022-12-20T08:33:57;5.10;78.00
32524;DHT22;18965;52.242;20.886;2022-12-20T08:36:23;5.20;78.00
32524;DHT22;18965;52.242;20.886;2022-12-20T08:38:49;5.30;78.10
32524;DHT22;18965;52.242;20.886;2022-12-20T08:41:15;5.30;78.00
32524;DHT22;18965;52.242;20.886;2022-12-20T08:43:42;5.40;78.00
32524;DHT22;18965;52.242;20.886;2022-12-20T08:46:09;5.50;77.90
32524;DHT22;18965;52.242;20.886;2022-12-20T08:48:39;5.50;78.50
32524;DHT22;18965;52.242;20.886;2022-12-20T08:51:07;5.60;77.70
32524;DHT22;18965;52.242;20.886;2022-12-20T08:53:34;5.60;77.60
32524;DHT22;18965;52.242;20.886;2022-12-20T08:56:12;5.70;77.60
32524;DHT22;18965;52.242;20.886;2022-12-20T08:58:40;5.80;77.50
32524;DHT22;18965;52.242;20.886;2022-12-20T09:01:09;5.90;77.40
32524;DHT22;18965;52.242;20.886;2022-12-20T09:03:37;5.90;77.10
32524;DHT22;18965;52.242;20.886;2022-12-20T09:06:15;5.90;76.70
32524;DHT22;18965;52.242;20.886;2022-12-20T09:08:42;6.00;76.70
32524;DHT22;18965;52.242;20.886;2022-12-20T09:11:13;6.00;76.40
32524;DHT22;18965;52.242;20.886;2022-12-20T09:13:41;6.00;76.00
32524;DHT22;18965;52.242;20.886;2022-12-20T09:16:07;6.00;75.90
32524;DHT22;18965;52.242;20.886;2022-12-20T09:18:33;6.10;75.90
32524;DHT22;18965;52.242;20.886;2022-12-20T09:21:01;6.20;76.00
32524;DHT22;18965;52.242;20.886;2022-12-20T09:23:29;6.30;76.10
32524;DHT22;18965;52.242;20.886;2022-12-20T09:25:55;6.40;75.80
32524;DHT22;18965;52.242;20.886;2022-12-20T09:28:25;6.50;75.80
32524;DHT22;18965;52.242;20.886;2022-12-20T09:30:51;6.60;75.60
32524;DHT22;18965;52.242;20.886;2022-12-20T09:33:16;6.70;75.30
32524;DHT22;18965;52.242;20.886;2022-12-20T09:35:44;6.80;75.00
32524;DHT22;18965;52.242;20.886;2022-12-20T09:38:10;6.90;74.80
32524;DHT22;18965;52.242;20.886;2022-12-20T09:40:36;6.90;74.60
32524;DHT22;18965;52.242;20.886;2022-12-20T09:43:04;7.00;74.50
32524;DHT22;18965;52.242;20.886;2022-12-20T09:45:34;7.00;74.20
32524;DHT22;18965;52.242;20.886;2022-12-20T09:48:01;7.00;74.10
32524;DHT22;18965;52.242;20.886;2022-12-20T09:59:02;7.20;73.80
32524;DHT22;18965;52.242;20.886;2022-12-20T10:01:33;7.30;73.50
32524;DHT22;18965;52.242;20.886;2022-12-20T10:04:06;7.30;73.40
32524;DHT22;18965;52.242;20.886;2022-12-20T10:15:18;7.40;72.90
32524;DHT22;18965;52.242;20.886;2022-12-20T10:18:17;7.50;73.80
32524;DHT22;18965;52.242;20.886;2022-12-20T10:23:35;7.50;72.80
32524;DHT22;18965;52.242;20.886;2022-12-20T10:26:08;7.50;72.60
32524;DHT22;18965;52.242;20.886;2022-12-20T10:28:35;7.50;72.40
32524;DHT22;18965;52.242;20.886;2022-12-20T10:31:05;7.40;72.30
32524;DHT22;18965;52.242;20.886;2022-12-20T10:33:31;7.40;72.40
32524;DHT22;18965;52.242;20.886;2022-12-20T10:36:37;7.40;72.40
32524;DHT22;18965;52.242;20.886;2022-12-20T10:39:07;7.40;72.40
32524;DHT22;18965;52.242;20.886;2022-12-20T10:44:27;7.30;72.10
32524;DHT22;18965;52.242;20.886;2022-12-20T10:46:56;7.20;72.00
32524;DHT22;18965;52.242;20.886;2022-12-20T10:49:36;7.20;72.20
32524;DHT22;18965;52.242;20.886;2022-12-20T10:54:42;7.00;71.90
32524;DHT22;18965;52.242;20.886;2022-12-20T10:57:25;6.90;72.00
32524;DHT22;18965;52.242;20.886;2022-12-20T10:59:56;6.90;72.90
32524;DHT22;18965;52.242;20.886;2022-12-20T11:02:37;6.80;72.20
32524;DHT22;18965;52.242;20.886;2022-12-20T11:07:58;6.70;72.50
32524;DHT22;18965;52.242;20.886;2022-12-20T11:10:51;6.70;72.70
32524;DHT22;18965;52.242;20.886;2022-12-20T11:13:34;6.70;72.80
32524;DHT22;18965;52.242;20.886;2022-12-20T11:16:00;6.70;72.80
32524;DHT22;18965;52.242;20.886;2022-12-20T11:35:08;6.90;72.80
32524;DHT22;18965;52.242;20.886;2022-12-20T11:40:32;6.90;72.40
32524;DHT22;18965;52.242;20.886;2022-12-20T11:49:58;7.00;72.40
32524;DHT22;18965;52.242;20.886;2022-12-20T11:52:50;7.10;72.30
32524;DHT22;18965;52.242;20.886;2022-12-20T11:55:38;7.10;71.90
32524;DHT22;18965;52.242;20.886;2022-12-20T12:00:39;7.30;72.20
32524;DHT22;18965;52.242;20.886;2022-12-20T12:06:15;7.50;72.10
32524;DHT22;18965;52.242;20.886;2022-12-20T12:09:03;7.60;71.90
32524;DHT22;18965;52.242;20.886;2022-12-20T12:11:33;7.70;71.90
32524;DHT22;18965;52.242;20.886;2022-12-20T12:14:01;7.80;71.60
32524;DHT22;18965;52.242;20.886;2022-12-20T12:16:36;7.90;71.40
32524;DHT22;18965;52.242;20.886;2022-12-20T12:19:08;8.00;71.30
32524;DHT22;18965;52.242;20.886;2022-12-20T12:21:47;8.10;70.90
32524;DHT22;18965;52.242;20.886;2022-12-20T12:26:57;8.10;70.50
32524;DHT22;18965;52.242;20.886;2022-12-20T12:29:23;8.20;70.40
32524;DHT22;18965;52.242;20.886;2022-12-20T12:31:50;8.20;70.20
32524;DHT22;18965;52.242;20.886;2022-12-20T12:45:47;8.10;69.30
32524;DHT22;18965;52.242;20.886;2022-12-20T12:48:16;8.10;69.50
32524;DHT22;18965;52.242;20.886;2022-12-20T12:50:49;8.00;69.40
32524;DHT22;18965;52.242;20.886;2022-12-20T12:53:29;8.00;69.30
32524;DHT22;18965;52.242;20.886;2022-12-20T12:55:56;7.90;69.40
32524;DHT22;18965;52.242;20.886;2022-12-20T12:59:07;7.80;69.40
32524;DHT22;18965;52.242;20.886;2022-12-20T13:01:48;7.80;69.20
32524;DHT22;18965;52.242;20.886;2022-12-20T13:20:37;7.20;69.80
32524;DHT22;18965;52.242;20.886;2022-12-20T13:25:47;7.10;70.10
32524;DHT22;18965;52.242;20.886;2022-12-20T13:31:57;7.00;70.10
32524;DHT22;18965;52.242;20.886;2022-12-20T13:34:59;7.00;70.40
32524;DHT22;18965;52.242;20.886;2022-12-20T13:37:50;6.90;70.50
32524;DHT22;18965;52.242;20.886;2022-12-20T13:40:39;6.90;70.60
32524;DHT22;18965;52.242;20.886;2022-12-20T13:43:24;6.80;70.60
32524;DHT22;18965;52.242;20.886;2022-12-20T13:46:27;6.80;70.70
32524;DHT22;18965;52.242;20.886;2022-12-20T13:49:00;6.70;70.70
32524;DHT22;18965;52.242;20.886;2022-12-20T13:51:28;6.70;70.80
32524;DHT22;18965;52.242;20.886;2022-12-20T13:54:03;6.60;70.90
32524;DHT22;18965;52.242;20.886;2022-12-20T13:56:44;6.60;71.10
32524;DHT22;18965;52.242;20.886;2022-12-20T13:59:23;6.60;71.20
32524;DHT22;18965;52.242;20.886;2022-12-20T14:01:54;6.60;71.30
32524;DHT22;18965;52.242;20.886;2022-12-20T14:04:20;6.50;71.30
32524;DHT22;18965;52.242;20.886;2022-12-20T14:06:56;6.50;71.40
32524;DHT22;18965;52.242;20.886;2022-12-20T14:09:36;6.50;71.60
32524;DHT22;18965;52.242;20.886;2022-12-20T14:12:11;6.50;71.70
32524;DHT22;18965;52.242;20.886;2022-12-20T14:14:47;6.50;71.80
32524;DHT22;18965;52.242;20.886;2022-12-20T14:17:34;6.50;71.90
32524;DHT22;18965;52.242;20.886;2022-12-20T14:20:14;6.50;72.00
32524;DHT22;18965;52.242;20.886;2022-12-20T14:22:55;6.40;72.00
32524;DHT22;18965;52.242;20.886;2022-12-20T14:25:46;6.40;72.00
32524;DHT22;18965;52.242;20.886;2022-12-20T14:28:37;6.40;72.10
32524;DHT22;18965;52.242;20.886;2022-12-20T14:31:06;6.50;72.10
32524;DHT22;18965;52.242;20.886;2022-12-20T14:33:37;6.40;72.10
32524;DHT22;18965;52.242;20.886;2022-12-20T14:36:21;6.40;72.10
32524;DHT22;18965;52.242;20.886;2022-12-20T14:38:49;6.40;72.10
32524;DHT22;18965;52.242;20.886;2022-12-20T14:41:38;6.40;72.20
32524;DHT22;18965;52.242;20.886;2022-12-20T14:59:28;6.20;71.10
32524;DHT22;18965;52.242;20.886;2022-12-20T15:01:56;6.20;76.40
32524;DHT22;18965;52.242;20.886;2022-12-20T15:04:52;6.10;71.30
32524;DHT22;18965;52.242;20.886;2022-12-20T15:07:31;6.00;71.20
32524;DHT22;18965;52.242;20.886;2022-12-20T15:10:00;6.00;71.20
32524;DHT22;18965;52.242;20.886;2022-12-20T15:22:15;6.40;77.40
32524;DHT22;18965;52.242;20.886;2022-12-20T15:24:41;5.80;75.70
32524;DHT22;18965;52.242;20.886;2022-12-20T15:27:14;5.80;71.50
32524;DHT22;18965;52.242;20.886;2022-12-20T15:29:40;7.80;72.80
32524;DHT22;18965;52.242;20.886;2022-12-20T15:32:19;5.70;74.20
32524;DHT22;18965;52.242;20.886;2022-12-20T15:37:14;5.70;75.60
32524;DHT22;18965;52.242;20.886;2022-12-20T15:39:40;5.60;73.40
32524;DHT22;18965;52.242;20.886;2022-12-20T15:42:09;5.70;72.10
32524;DHT22;18965;52.242;20.886;2022-12-20T15:44:37;5.70;76.50
32524;DHT22;18965;52.242;20.886;2022-12-20T15:47:04;5.70;76.80
32524;DHT22;18965;52.242;20.886;2022-12-20T15:49:31;5.70;73.70
32524;DHT22;18965;52.242;20.886;2022-12-20T15:54:26;5.70;71.90
32524;DHT22;18965;52.242;20.886;2022-12-20T15:56:53;5.60;72.00
32524;DHT22;18965;52.242;20.886;2022-12-20T16:04:14;5.60;86.10
32524;DHT22;18965;52.242;20.886;2022-12-20T16:14:02;5.60;86.60
32524;DHT22;18965;52.242;20.886;2022-12-20T16:16:33;5.50;72.40
32524;DHT22;18965;52.242;20.886;2022-12-20T16:21:29;5.50;72.40
32524;DHT22;18965;52.242;20.886;2022-12-20T16:26:24;5.50;72.70
32524;DHT22;18965;52.242;20.886;2022-12-20T16:28:51;5.40;73.60
32524;DHT22;18965;52.242;20.886;2022-12-20T16:31:29;5.50;72.90
32524;DHT22;18965;52.242;20.886;2022-12-20T16:33:56;5.50;73.50
32524;DHT22;18965;52.242;20.886;2022-12-20T16:36:23;5.50;73.70
32524;DHT22;18965;52.242;20.886;2022-12-20T16:38:50;5.50;73.70
32524;DHT22;18965;52.242;20.886;2022-12-20T16:41:22;5.50;73.80
32524;DHT22;18965;52.242;20.886;2022-12-20T16:43:48;5.60;73.40
32524;DHT22;18965;52.242;20.886;2022-12-20T16:46:17;5.50;73.90
32524;DHT22;18965;52.242;20.886;2022-12-20T16:48:43;5.60;74.10
32524;DHT22;18965;52.242;20.886;2022-12-20T16:54:01;5.60;74.10
32524;DHT22;18965;52.242;20.886;2022-12-20T16:56:28;5.60;74.10
32524;DHT22;18965;52.242;20.886;2022-12-20T16:58:55;5.60;74.20
32524;DHT22;18965;52.242;20.886;2022-12-20T17:01:29;5.60;74.20
32524;DHT22;18965;52.242;20.886;2022-12-20T17:03:55;5.60;74.20
32524;DHT22;18965;52.242;20.886;2022-12-20T17:06:21;5.70;73.70
32524;DHT22;18965;52.242;20.886;2022-12-20T17:08:47;5.70;74.30
32524;DHT22;18965;52.242;20.886;2022-12-20T17:11:28;5.70;74.30
32524;DHT22;18965;52.242;20.886;2022-12-20T17:13:55;5.70;74.30
32524;DHT22;18965;52.242;20.886;2022-12-20T17:16:21;5.70;74.30
32524;DHT22;18965;52.242;20.886;2022-12-20T17:18:55;5.70;73.70
32524;DHT22;18965;52.242;20.886;2022-12-20T17:21:42;5.70;74.30
32524;DHT22;18965;52.242;20.886;2022-12-20T17:24:20;5.70;74.40
32524;DHT22;18965;52.242;20.886;2022-12-20T17:29:37;5.80;75.10
32524;DHT22;18965;52.242;20.886;2022-12-20T17:32:19;5.70;74.50
32524;DHT22;18965;52.242;20.886;2022-12-20T17:34:45;5.70;74.20
32524;DHT22;18965;52.242;20.886;2022-12-20T17:37:11;5.70;74.20
32524;DHT22;18965;52.242;20.886;2022-12-20T17:39:37;5.60;74.20
32524;DHT22;18965;52.242;20.886;2022-12-20T17:42:23;5.70;74.30
32524;DHT22;18965;52.242;20.886;2022-12-20T17:44:49;5.60;74.30
32524;DHT22;18965;52.242;20.886;2022-12-20T17:47:15;5.70;73.90
32524;DHT22;18965;52.242;20.886;2022-12-20T17:49:41;5.60;74.40
32524;DHT22;18965;52.242;20.886;2022-12-20T17:52:14;5.60;74.40
32524;DHT22;18965;52.242;20.886;2022-12-20T17:54:40;5.60;74.50
32524;DHT22;18965;52.242;20.886;2022-12-20T17:57:15;5.60;74.50
32524;DHT22;18965;52.242;20.886;2022-12-20T17:59:41;5.60;74.60
32524;DHT22;18965;52.242;20.886;2022-12-20T18:02:21;5.70;74.60
32524;DHT22;18965;52.242;20.886;2022-12-20T18:04:47;5.70;75.40
32524;DHT22;18965;52.242;20.886;2022-12-20T18:07:13;5.70;74.60
32524;DHT22;18965;52.242;20.886;2022-12-20T18:09:39;5.70;74.70
32524;DHT22;18965;52.242;20.886;2022-12-20T18:12:05;5.70;74.60
32524;DHT22;18965;52.242;20.886;2022-12-20T18:14:31;5.70;74.60
32524;DHT22;18965;52.242;20.886;2022-12-20T18:16:56;5.70;74.70
32524;DHT22;18965;52.242;20.886;2022-12-20T18:19:23;5.70;74.70
32524;DHT22;18965;52.242;20.886;2022-12-20T18:21:49;5.70;75.80
32524;DHT22;18965;52.242;20.886;2022-12-20T18:24:15;5.70;75.20
32524;DHT22;18965;52.242;20.886;2022-12-20T18:26:42;5.70;74.80
32524;DHT22;18965;52.242;20.886;2022-12-20T18:29:09;5.70;74.80
32524;DHT22;18965;52.242;20.886;2022-12-20T18:31:35;5.70;75.00
32524;DHT22;18965;52.242;20.886;2022-12-20T18:34:01;5.70;74.90
32524;DHT22;18965;52.242;20.886;2022-12-20T18:36:30;5.80;74.70
32524;DHT22;18965;52.242;20.886;2022-12-20T18:38:57;5.80;74.70
32524;DHT22;18965;52.242;20.886;2022-12-20T18:41:25;5.80;74.50
32524;DHT22;18965;52.242;20.886;2022-12-20T18:43:56;5.80;74.50
32524;DHT22;18965;52.242;20.886;2022-12-20T18:46:22;5.80;74.50
32524;DHT22;18965;52.242;20.886;2022-12-20T18:48:53;5.80;74.40
32524;DHT22;18965;52.242;20.886;2022-12-20T18:51:21;5.80;74.40
32524;DHT22;18965;52.242;20.886;2022-12-20T18:53:48;5.80;74.40
32524;DHT22;18965;52.242;20.886;2022-12-20T18:56:19;5.80;74.40
32524;DHT22;18965;52.242;20.886;2022-12-20T18:58:53;5.70;74.40
32524;DHT22;18965;52.242;20.886;2022-12-20T19:01:26;5.70;74.40
32524;DHT22;18965;52.242;20.886;2022-12-20T19:03:53;5.80;74.50
32524;DHT22;18965;52.242;20.886;2022-12-20T19:06:26;5.00;74.00
32524;DHT22;18965;52.242;20.886;2022-12-20T19:09:07;5.80;74.30
32524;DHT22;18965;52.242;20.886;2022-12-20T19:11:34;5.80;74.40
32524;DHT22;18965;52.242;20.886;2022-12-20T19:14:21;5.70;74.60
32524;DHT22;18965;52.242;20.886;2022-12-20T19:16:49;5.60;74.30
32524;DHT22;18965;52.242;20.886;2022-12-20T19:19:20;5.70;73.70
32524;DHT22;18965;52.242;20.886;2022-12-20T19:21:46;5.70;74.30
32524;DHT22;18965;52.242;20.886;2022-12-20T19:26:39;5.70;73.60
32524;DHT22;18965;52.242;20.886;2022-12-20T19:29:05;5.70;74.60
32524;DHT22;18965;52.242;20.886;2022-12-20T19:31:33;5.00;74.70
32524;DHT22;18965;52.242;20.886;2022-12-20T19:34:06;5.50;74.30
32524;DHT22;18965;52.242;20.886;2022-12-20T19:36:44;5.60;73.70
32524;DHT22;18965;52.242;20.886;2022-12-20T19:39:15;5.50;74.40
32524;DHT22;18965;52.242;20.886;2022-12-20T19:41:45;5.50;74.40
32524;DHT22;18965;52.242;20.886;2022-12-20T19:44:11;5.60;74.50
32524;DHT22;18965;52.242;20.886;2022-12-20T19:51:30;5.60;73.80
32524;DHT22;18965;52.242;20.886;2022-12-20T19:53:57;5.60;73.80
32524;DHT22;18965;52.242;20.886;2022-12-20T19:56:25;5.70;73.80
32524;DHT22;18965;52.242;20.886;2022-12-20T19:58:54;5.60;73.70
32524;DHT22;18965;52.242;20.886;2022-12-20T20:01:24;5.70;73.80
32524;DHT22;18965;52.242;20.886;2022-12-20T20:03:56;5.70;73.90
32524;DHT22;18965;52.242;20.886;2022-12-20T20:06:23;5.60;73.80
32524;DHT22;18965;52.242;20.886;2022-12-20T20:08:50;5.50;74.80
32524;DHT22;18965;52.242;20.886;2022-12-20T20:11:17;5.60;74.90
32524;DHT22;18965;52.242;20.886;2022-12-20T20:13:44;5.50;75.30
32524;DHT22;18965;52.242;20.886;2022-12-20T20:16:10;5.60;75.30
32524;DHT22;18965;52.242;20.886;2022-12-20T20:18:37;5.60;74.40
32524;DHT22;18965;52.242;20.886;2022-12-20T20:21:05;5.60;74.60
32524;DHT22;18965;52.242;20.886;2022-12-20T20:23:32;5.60;74.30
32524;DHT22;18965;52.242;20.886;2022-12-20T20:25:59;5.60;73.60
32524;DHT22;18965;52.242;20.886;2022-12-20T20:28:36;5.50;74.70
32524;DHT22;18965;52.242;20.886;2022-12-20T20:31:02;5.60;74.40
32524;DHT22;18965;52.242;20.886;2022-12-20T20:33:29;5.50;74.60
32524;DHT22;18965;52.242;20.886;2022-12-20T20:35:57;5.60;74.20
32524;DHT22;18965;52.242;20.886;2022-12-20T20:38:24;5.60;74.20
32524;DHT22;18965;52.242;20.886;2022-12-20T20:40:50;5.60;74.10
32524;DHT22;18965;52.242;20.886;2022-12-20T20:43:16;5.60;74.20
32524;DHT22;18965;52.242;20.886;2022-12-20T20:45:42;5.60;74.20
32524;DHT22;18965;52.242;20.886;2022-12-20T20:48:08;5.60;74.20
32524;DHT22;18965;52.242;20.886;2022-12-20T20:50:34;5.60;74.20
32524;DHT22;18965;52.242;20.886;2022-12-20T20:52:59;5.70;74.20
32524;DHT22;18965;52.242;20.886;2022-12-20T20:55:25;5.70;74.20
32524;DHT22;18965;52.242;20.886;2022-12-20T20:57:51;5.70;74.30
32524;DHT22;18965;52.242;20.886;2022-12-20T21:00:17;5.60;74.10
32524;DHT22;18965;52.242;20.886;2022-12-20T21:02:43;5.60;74.10
32524;DHT22;18965;52.242;20.886;2022-12-20T21:05:09;5.60;74.10
32524;DHT22;18965;52.242;20.886;2022-12-20T21:07:35;5.60;74.10
32524;DHT22;18965;52.242;20.886;2022-12-20T21:10:02;5.60;74.90
32524;DHT22;18965;52.242;20.886;2022-12-20T21:12:28;5.70;74.30
32524;DHT22;18965;52.242;20.886;2022-12-20T21:14:54;5.60;74.30
32524;DHT22;18965;52.242;20.886;2022-12-20T21:17:20;5.70;74.30
32524;DHT22;18965;52.242;20.886;2022-12-20T21:19:45;5.70;74.20
32524;DHT22;18965;52.242;20.886;2022-12-20T21:22:11;5.70;74.20
32524;DHT22;18965;52.242;20.886;2022-12-20T21:24:37;5.70;74.40
32524;DHT22;18965;52.242;20.886;2022-12-20T21:27:02;5.70;74.10
32524;DHT22;18965;52.242;20.886;2022-12-20T21:29:28;5.60;74.70
32524;DHT22;18965;52.242;20.886;2022-12-20T21:31:54;5.60;74.40
32524;DHT22;18965;52.242;20.886;2022-12-20T21:34:20;5.70;74.20
32524;DHT22;18965;52.242;20.886;2022-12-20T21:36:45;5.70;74.30
32524;DHT22;18965;52.242;20.886;2022-12-20T21:39:12;5.70;74.30
32524;DHT22;18965;52.242;20.886;2022-12-20T21:41:38;5.70;74.20
32524;DHT22;18965;52.242;20.886;2022-12-20T21:44:04;5.70;74.30
32524;DHT22;18965;52.242;20.886;2022-12-20T21:46:31;5.70;74.80
32524;DHT22;18965;52.242;20.886;2022-12-20T21:48:57;4.40;74.60
32524;DHT22;18965;52.242;20.886;2022-12-20T21:51:25;5.70;74.30
32524;DHT22;18965;52.242;20.886;2022-12-20T21:53:54;5.70;74.70
32524;DHT22;18965;52.242;20.886;2022-12-20T21:56:21;5.70;74.30
32524;DHT22;18965;52.242;20.886;2022-12-20T21:58:47;5.70;74.70
32524;DHT22;18965;52.242;20.886;2022-12-20T22:01:16;5.70;73.70
32524;DHT22;18965;52.242;20.886;2022-12-20T22:03:42;5.70;74.40
32524;DHT22;18965;52.242;20.886;2022-12-20T22:06:09;5.70;74.80
32524;DHT22;18965;52.242;20.886;2022-12-20T22:08:35;5.70;74.60
32524;DHT22;18965;52.242;20.886;2022-12-20T22:11:15;5.70;74.50
32524;DHT22;18965;52.242;20.886;2022-12-20T22:13:41;5.60;74.30
32524;DHT22;18965;52.242;20.886;2022-12-20T22:16:09;5.70;74.50
32524;DHT22;18965;52.242;20.886;2022-12-20T22:18:35;5.70;74.50
32524;DHT22;18965;52.242;20.886;2022-12-20T22:21:09;5.70;75.10
32524;DHT22;18965;52.242;20.886;2022-12-20T22:23:38;5.70;73.70
32524;DHT22;18965;52.242;20.886;2022-12-20T22:26:10;5.60;74.50
32524;DHT22;18965;52.242;20.886;2022-12-20T22:28:37;5.70;74.60
32524;DHT22;18965;52.242;20.886;2022-12-20T22:31:08;4.10;74.00
32524;DHT22;18965;52.242;20.886;2022-12-20T22:33:35;5.70;74.50
32524;DHT22;18965;52.242;20.886;2022-12-20T22:36:02;5.60;74.40
32524;DHT22;18965;52.242;20.886;2022-12-20T22:38:29;5.70;74.30
32524;DHT22;18965;52.242;20.886;2022-12-20T22:41:04;5.70;74.40
32524;DHT22;18965;52.242;20.886;2022-12-20T22:43:30;5.70;74.90
32524;DHT22;18965;52.242;20.886;2022-12-20T22:45:57;5.70;74.80
32524;DHT22;18965;52.242;20.886;2022-12-20T22:48:23;5.70;74.30
32524;DHT22;18965;52.242;20.886;2022-12-20T22:50:57;5.70;74.30
32524;DHT22;18965;52.242;20.886;2022-12-20T22:53:23;5.70;74.20
32524;DHT22;18965;52.242;20.886;2022-12-20T22:55:53;5.70;74.30
32524;DHT22;18965;52.242;20.886;2022-12-20T22:58:19;5.70;74.30
32524;DHT22;18965;52.242;20.886;2022-12-20T23:00:46;5.70;74.40
32524;DHT22;18965;52.242;20.886;2022-12-20T23:03:13;5.70;74.60
32524;DHT22;18965;52.242;20.886;2022-12-20T23:05:39;5.70;74.40
32524;DHT22;18965;52.242;20.886;2022-12-20T23:08:05;5.70;74.50
32524;DHT22;18965;52.242;20.886;2022-12-20T23:10:30;5.60;75.20
32524;DHT22;18965;52.242;20.886;2022-12-20T23:13:15;5.70;74.80
32524;DHT22;18965;52.242;20.886;2022-12-20T23:15:59;5.60;74.50
32524;DHT22;18965;52.242;20.886;2022-12-20T23:18:24;5.60;74.80
32524;DHT22;18965;52.242;20.886;2022-12-20T23:20:51;5.60;74.10
32524;DHT22;18965;52.242;20.886;2022-12-20T23:23:37;5.60;75.20
32524;DHT22;18965;52.242;20.886;2022-12-20T23:26:13;5.60;74.90
32524;DHT22;18965;52.242;20.886;2022-12-20T23:28:39;5.60;75.10
32524;DHT22;18965;52.242;20.886;2022-12-20T23:31:09;5.60;74.40
32524;DHT22;18965;52.242;20.886;2022-12-20T23:33:39;5.50;75.30
32524;DHT22;18965;52.242;20.886;2022-12-20T23:36:05;5.60;75.30
32524;DHT22;18965;52.242;20.886;2022-12-20T23:38:35;5.60;75.30
32524;DHT22;18965;52.242;20.886;2022-12-20T23:41:09;5.60;75.30
32524;DHT22;18965;52.242;20.886;2022-12-20T23:43:36;5.50;75.20
32524;DHT22;18965;52.242;20.886;2022-12-20T23:46:08;5.50;76.20
32524;DHT22;18965;52.242;20.886;2022-12-20T23:48:34;5.50;74.50
32524;DHT22;18965;52.242;20.886;2022-12-20T23:51:00;5.40;74.40
32524;DHT22;18965;52.242;20.886;2022-12-20T23:53:26;5.40;75.60
32524;DHT22;18965;52.242;20.886;2022-12-20T23:58:30;5.40;76.10
